sensor_id;sensor_type;location;lat;lon;timestamp;P1;durP1;ratioP1;P2;durP2;ratioP2
12980;SDS011;6555;50.468;8.480;2022-08-26T00:02:23;2.22;;;1.30;;
12980;SDS011;6555;50.468;8.480;2022-08-26T00:07:41;1.77;;;1.42;;
12980;SDS011;6555;50.468;8.480;2022-08-26T00:13:12;1.60;;;1.50;;
12980;SDS011;6555;50.468;8.480;2022-08-26T00:18:29;1.58;;;1.45;;
12980;SDS011;6555;50.468;8.480;2022-08-26T00:24:01;1.50;;;1.40;;
12980;SDS011;6555;50.468;8.480;2022-08-26T00:29:18;1.60;;;1.50;;
12980;SDS011;6555;50.468;8.480;2022-08-26T00:34:50;1.50;;;1.40;;
12980;SDS011;6555;50.468;8.480;2022-08-26T00:40:10;1.63;;;1.50;;
12980;SDS011;6555;50.468;8.480;2022-08-26T00:45:43;1.48;;;1.38;;
12980;SDS011;6555;50.468;8.480;2022-08-26T00:51:03;1.30;;;1.20;;
12980;SDS011;6555;50.468;8.480;2022-08-26T00:56:39;1.80;;;1.33;;
12980;SDS011;6555;50.468;8.480;2022-08-26T01:02:14;1.60;;;1.50;;
12980;SDS011;6555;50.468;8.480;2022-08-26T01:07:31;1.70;;;1.60;;
12980;SDS011;6555;50.468;8.480;2022-08-26T01:13:06;1.70;;;1.60;;
12980;SDS011;6555;50.468;8.480;2022-08-26T01:18:27;1.30;;;1.20;;
12980;SDS011;6555;50.468;8.480;2022-08-26T01:23:59;1.65;;;1.40;;
12980;SDS011;6555;50.468;8.480;2022-08-26T01:29:17;1.60;;;1.50;;
12980;SDS011;6555;50.468;8.480;2022-08-26T01:34:49;2.25;;;1.60;;
12980;SDS011;6555;50.468;8.480;2022-08-26T01:40:15;2.13;;;1.48;;
12980;SDS011;6555;50.468;8.480;2022-08-26T01:45:49;1.42;;;1.33;;
12980;SDS011;6555;50.468;8.480;2022-08-26T01:51:08;1.30;;;1.20;;
12980;SDS011;6555;50.468;8.480;2022-08-26T01:56:41;1.55;;;1.45;;
12980;SDS011;6555;50.468;8.480;2022-08-26T02:02:12;1.70;;;1.60;;
12980;SDS011;6555;50.468;8.480;2022-08-26T02:07:28;1.75;;;1.60;;
12980;SDS011;6555;50.468;8.480;2022-08-26T02:13:01;2.55;;;1.50;;
12980;SDS011;6555;50.468;8.480;2022-08-26T02:18:20;1.75;;;1.65;;
12980;SDS011;6555;50.468;8.480;2022-08-26T02:23:51;1.98;;;1.77;;
12980;SDS011;6555;50.468;8.480;2022-08-26T02:29:12;1.50;;;1.40;;
12980;SDS011;6555;50.468;8.480;2022-08-26T02:34:48;2.03;;;1.60;;
12980;SDS011;6555;50.468;8.480;2022-08-26T02:40:04;1.80;;;1.70;;
12980;SDS011;6555;50.468;8.480;2022-08-26T02:45:38;1.52;;;1.42;;
12980;SDS011;6555;50.468;8.480;2022-08-26T02:50:55;1.67;;;1.58;;
12980;SDS011;6555;50.468;8.480;2022-08-26T02:56:27;1.90;;;1.70;;
12980;SDS011;6555;50.468;8.480;2022-08-26T03:01:44;2.28;;;1.60;;
12980;SDS011;6555;50.468;8.480;2022-08-26T03:07:17;2.08;;;1.38;;
12980;SDS011;6555;50.468;8.480;2022-08-26T03:12:34;1.60;;;1.50;;
12980;SDS011;6555;50.468;8.480;2022-08-26T03:18:07;1.65;;;1.55;;
12980;SDS011;6555;50.468;8.480;2022-08-26T03:23:24;1.42;;;1.33;;
12980;SDS011;6555;50.468;8.480;2022-08-26T03:28:54;1.77;;;1.67;;
12980;SDS011;6555;50.468;8.480;2022-08-26T03:34:29;2.45;;;1.75;;
12980;SDS011;6555;50.468;8.480;2022-08-26T03:40:01;1.75;;;1.65;;
12980;SDS011;6555;50.468;8.480;2022-08-26T03:45:18;1.60;;;1.50;;
12980;SDS011;6555;50.468;8.480;2022-08-26T03:50:58;1.60;;;1.50;;
12980;SDS011;6555;50.468;8.480;2022-08-26T03:56:32;2.20;;;2.00;;
12980;SDS011;6555;50.468;8.480;2022-08-26T04:01:48;1.70;;;1.60;;
12980;SDS011;6555;50.468;8.480;2022-08-26T04:07:26;1.85;;;1.75;;
12980;SDS011;6555;50.468;8.480;2022-08-26T04:12:43;1.65;;;1.48;;
12980;SDS011;6555;50.468;8.480;2022-08-26T04:18:14;1.60;;;1.50;;
12980;SDS011;6555;50.468;8.480;2022-08-26T04:23:31;1.90;;;1.75;;
12980;SDS011;6555;50.468;8.480;2022-08-26T04:29:02;1.73;;;1.60;;
12980;SDS011;6555;50.468;8.480;2022-08-26T04:34:20;2.20;;;1.73;;
12980;SDS011;6555;50.468;8.480;2022-08-26T04:39:52;1.73;;;1.63;;
12980;SDS011;6555;50.468;8.480;2022-08-26T04:45:11;1.90;;;1.70;;
12980;SDS011;6555;50.468;8.480;2022-08-26T04:50:41;2.47;;;1.63;;
12980;SDS011;6555;50.468;8.480;2022-08-26T04:55:58;2.20;;;2.00;;
12980;SDS011;6555;50.468;8.480;2022-08-26T05:01:29;2.10;;;1.90;;
12980;SDS011;6555;50.468;8.480;2022-08-26T05:06:46;1.83;;;1.65;;
12980;SDS011;6555;50.468;8.480;2022-08-26T05:12:18;1.73;;;1.63;;
12980;SDS011;6555;50.468;8.480;2022-08-26T05:17:35;2.35;;;1.67;;
12980;SDS011;6555;50.468;8.480;2022-08-26T05:23:05;1.65;;;1.55;;
12980;SDS011;6555;50.468;8.480;2022-08-26T05:28:23;2.00;;;1.85;;
12980;SDS011;6555;50.468;8.480;2022-08-26T05:33:54;2.80;;;1.90;;
12980;SDS011;6555;50.468;8.480;2022-08-26T05:39:11;2.42;;;2.00;;
12980;SDS011;6555;50.468;8.480;2022-08-26T05:44:43;2.05;;;1.83;;
12980;SDS011;6555;50.468;8.480;2022-08-26T05:50:03;2.10;;;1.90;;
12980;SDS011;6555;50.468;8.480;2022-08-26T05:55:34;2.03;;;1.85;;
12980;SDS011;6555;50.468;8.480;2022-08-26T06:01:11;1.90;;;1.70;;
12980;SDS011;6555;50.468;8.480;2022-08-26T06:06:32;2.30;;;1.85;;
12980;SDS011;6555;50.468;8.480;2022-08-26T06:12:03;2.15;;;1.65;;
12980;SDS011;6555;50.468;8.480;2022-08-26T06:17:23;2.80;;;2.10;;
12980;SDS011;6555;50.468;8.480;2022-08-26T06:22:54;2.17;;;1.90;;
12980;SDS011;6555;50.468;8.480;2022-08-26T06:28:28;2.58;;;2.38;;
12980;SDS011;6555;50.468;8.480;2022-08-26T06:34:00;2.30;;;2.03;;
12980;SDS011;6555;50.468;8.480;2022-08-26T06:39:17;2.03;;;1.88;;
12980;SDS011;6555;50.468;8.480;2022-08-26T06:44:47;2.30;;;2.10;;
12980;SDS011;6555;50.468;8.480;2022-08-26T06:50:18;3.45;;;2.22;;
12980;SDS011;6555;50.468;8.480;2022-08-26T06:55:38;2.45;;;1.98;;
12980;SDS011;6555;50.468;8.480;2022-08-26T07:01:16;2.65;;;2.30;;
12980;SDS011;6555;50.468;8.480;2022-08-26T07:06:36;4.75;;;2.45;;
12980;SDS011;6555;50.468;8.480;2022-08-26T07:12:09;4.13;;;2.38;;
12980;SDS011;6555;50.468;8.480;2022-08-26T07:17:25;2.65;;;2.33;;
12980;SDS011;6555;50.468;8.480;2022-08-26T07:22:56;2.90;;;2.45;;
12980;SDS011;6555;50.468;8.480;2022-08-26T07:28:16;4.43;;;2.35;;
12980;SDS011;6555;50.468;8.480;2022-08-26T07:33:46;3.13;;;2.20;;
12980;SDS011;6555;50.468;8.480;2022-08-26T07:39:04;2.92;;;2.40;;
12980;SDS011;6555;50.468;8.480;2022-08-26T07:44:35;3.47;;;2.97;;
12980;SDS011;6555;50.468;8.480;2022-08-26T07:49:54;2.42;;;2.22;;
12980;SDS011;6555;50.468;8.480;2022-08-26T07:55:26;3.60;;;2.40;;
12980;SDS011;6555;50.468;8.480;2022-08-26T08:00:44;2.60;;;2.38;;
12980;SDS011;6555;50.468;8.480;2022-08-26T08:06:15;5.63;;;2.72;;
12980;SDS011;6555;50.468;8.480;2022-08-26T08:11:35;3.00;;;2.70;;
12980;SDS011;6555;50.468;8.480;2022-08-26T08:17:06;3.72;;;3.42;;
12980;SDS011;6555;50.468;8.480;2022-08-26T08:22:22;4.50;;;4.10;;
12980;SDS011;6555;50.468;8.480;2022-08-26T08:27:55;6.43;;;4.32;;
12980;SDS011;6555;50.468;8.480;2022-08-26T08:33:12;4.15;;;3.75;;
12980;SDS011;6555;50.468;8.480;2022-08-26T08:38:42;6.10;;;3.60;;
12980;SDS011;6555;50.468;8.480;2022-08-26T08:44:00;3.78;;;3.40;;
12980;SDS011;6555;50.468;8.480;2022-08-26T08:49:30;3.78;;;3.40;;
12980;SDS011;6555;50.468;8.480;2022-08-26T08:54:48;4.75;;;4.22;;
12980;SDS011;6555;50.468;8.480;2022-08-26T09:00:25;4.95;;;3.85;;
12980;SDS011;6555;50.468;8.480;2022-08-26T09:05:47;5.88;;;4.00;;
12980;SDS011;6555;50.468;8.480;2022-08-26T09:11:20;5.47;;;4.72;;
12980;SDS011;6555;50.468;8.480;2022-08-26T09:16:39;5.70;;;5.15;;
12980;SDS011;6555;50.468;8.480;2022-08-26T09:22:26;7.82;;;5.28;;
12980;SDS011;6555;50.468;8.480;2022-08-26T09:27:44;8.85;;;5.03;;
12980;SDS011;6555;50.468;8.480;2022-08-26T09:33:18;4.70;;;4.30;;
12980;SDS011;6555;50.468;8.480;2022-08-26T09:38:42;5.40;;;4.68;;
12980;SDS011;6555;50.468;8.480;2022-08-26T09:44:14;5.53;;;5.05;;
12980;SDS011;6555;50.468;8.480;2022-08-26T09:49:34;9.80;;;6.03;;
12980;SDS011;6555;50.468;8.480;2022-08-26T09:55:09;6.90;;;6.25;;
12980;SDS011;6555;50.468;8.480;2022-08-26T10:00:29;6.93;;;6.00;;
12980;SDS011;6555;50.468;8.480;2022-08-26T10:06:04;7.68;;;6.22;;
12980;SDS011;6555;50.468;8.480;2022-08-26T10:11:41;6.40;;;5.78;;
12980;SDS011;6555;50.468;8.480;2022-08-26T10:17:15;8.15;;;7.45;;
12980;SDS011;6555;50.468;8.480;2022-08-26T10:22:43;8.55;;;7.75;;
12980;SDS011;6555;50.468;8.480;2022-08-26T10:28:19;8.38;;;7.47;;
12980;SDS011;6555;50.468;8.480;2022-08-26T10:33:41;8.13;;;7.35;;
12980;SDS011;6555;50.468;8.480;2022-08-26T10:39:17;7.50;;;6.70;;
12980;SDS011;6555;50.468;8.480;2022-08-26T10:44:37;7.78;;;7.07;;
12980;SDS011;6555;50.468;8.480;2022-08-26T10:50:12;9.13;;;8.32;;
12980;SDS011;6555;50.468;8.480;2022-08-26T10:55:32;8.90;;;7.47;;
12980;SDS011;6555;50.468;8.480;2022-08-26T11:01:07;7.47;;;6.90;;
12980;SDS011;6555;50.468;8.480;2022-08-26T11:06:47;8.65;;;7.85;;
12980;SDS011;6555;50.468;8.480;2022-08-26T11:18:03;7.60;;;7.00;;
12980;SDS011;6555;50.468;8.480;2022-08-26T11:23:44;7.90;;;5.68;;
12980;SDS011;6555;50.468;8.480;2022-08-26T11:29:04;7.75;;;7.05;;
12980;SDS011;6555;50.468;8.480;2022-08-26T11:40:13;4.35;;;4.05;;
12980;SDS011;6555;50.468;8.480;2022-08-26T11:45:47;3.15;;;2.95;;
12980;SDS011;6555;50.468;8.480;2022-08-26T11:51:19;4.07;;;3.67;;
12980;SDS011;6555;50.468;8.480;2022-08-26T11:56:55;6.25;;;5.57;;
12980;SDS011;6555;50.468;8.480;2022-08-26T12:02:26;4.43;;;4.05;;
12980;SDS011;6555;50.468;8.480;2022-08-26T12:07:46;3.78;;;3.47;;
12980;SDS011;6555;50.468;8.480;2022-08-26T12:13:20;4.78;;;4.38;;
12980;SDS011;6555;50.468;8.480;2022-08-26T12:18:39;6.65;;;5.72;;
12980;SDS011;6555;50.468;8.480;2022-08-26T12:24:10;4.32;;;4.03;;
12980;SDS011;6555;50.468;8.480;2022-08-26T12:29:34;4.30;;;4.00;;
12980;SDS011;6555;50.468;8.480;2022-08-26T12:35:07;6.50;;;6.00;;
12980;SDS011;6555;50.468;8.480;2022-08-26T12:40:33;6.53;;;5.95;;
12980;SDS011;6555;50.468;8.480;2022-08-26T12:46:05;14.10;;;6.65;;
12980;SDS011;6555;50.468;8.480;2022-08-26T12:51:25;4.25;;;3.95;;
12980;SDS011;6555;50.468;8.480;2022-08-26T12:57:07;3.22;;;2.90;;
12980;SDS011;6555;50.468;8.480;2022-08-26T13:02:34;6.45;;;3.60;;
12980;SDS011;6555;50.468;8.480;2022-08-26T13:08:10;4.97;;;3.22;;
12980;SDS011;6555;50.468;8.480;2022-08-26T13:13:28;3.88;;;3.40;;
12980;SDS011;6555;50.468;8.480;2022-08-26T13:19:00;3.63;;;3.30;;
12980;SDS011;6555;50.468;8.480;2022-08-26T13:24:20;5.75;;;4.10;;
12980;SDS011;6555;50.468;8.480;2022-08-26T13:29:53;4.05;;;3.65;;
12980;SDS011;6555;50.468;8.480;2022-08-26T13:35:10;3.92;;;3.58;;
12980;SDS011;6555;50.468;8.480;2022-08-26T13:40:42;4.03;;;3.63;;
12980;SDS011;6555;50.468;8.480;2022-08-26T13:45:59;4.80;;;4.32;;
12980;SDS011;6555;50.468;8.480;2022-08-26T13:51:30;4.50;;;4.10;;
12980;SDS011;6555;50.468;8.480;2022-08-26T13:56:55;3.50;;;3.20;;
12980;SDS011;6555;50.468;8.480;2022-08-26T14:02:26;4.78;;;4.28;;
12980;SDS011;6555;50.468;8.480;2022-08-26T14:07:44;6.30;;;5.70;;
12980;SDS011;6555;50.468;8.480;2022-08-26T14:13:16;7.38;;;6.68;;
12980;SDS011;6555;50.468;8.480;2022-08-26T14:18:33;7.38;;;6.63;;
12980;SDS011;6555;50.468;8.480;2022-08-26T14:24:05;7.50;;;6.72;;
12980;SDS011;6555;50.468;8.480;2022-08-26T14:29:23;8.98;;;8.18;;
12980;SDS011;6555;50.468;8.480;2022-08-26T14:34:53;7.82;;;7.13;;
12980;SDS011;6555;50.468;8.480;2022-08-26T14:40:25;7.28;;;6.68;;
12980;SDS011;6555;50.468;8.480;2022-08-26T14:45:46;29.42;;;26.98;;
12980;SDS011;6555;50.468;8.480;2022-08-26T14:51:16;10.02;;;9.23;;
12980;SDS011;6555;50.468;8.480;2022-08-26T14:56:43;8.40;;;7.70;;
12980;SDS011;6555;50.468;8.480;2022-08-26T15:02:18;8.43;;;7.63;;
12980;SDS011;6555;50.468;8.480;2022-08-26T15:07:40;7.65;;;6.97;;
12980;SDS011;6555;50.468;8.480;2022-08-26T15:13:10;8.02;;;7.28;;
12980;SDS011;6555;50.468;8.480;2022-08-26T15:18:28;7.68;;;7.00;;
12980;SDS011;6555;50.468;8.480;2022-08-26T15:23:58;7.82;;;7.13;;
12980;SDS011;6555;50.468;8.480;2022-08-26T15:29:15;6.40;;;5.80;;
12980;SDS011;6555;50.468;8.480;2022-08-26T15:34:51;6.65;;;6.15;;
12980;SDS011;6555;50.468;8.480;2022-08-26T15:40:09;6.85;;;6.25;;
12980;SDS011;6555;50.468;8.480;2022-08-26T15:45:40;7.32;;;6.63;;
12980;SDS011;6555;50.468;8.480;2022-08-26T15:50:58;8.15;;;6.97;;
12980;SDS011;6555;50.468;8.480;2022-08-26T15:56:30;9.68;;;8.73;;
12980;SDS011;6555;50.468;8.480;2022-08-26T16:01:50;9.07;;;8.27;;
12980;SDS011;6555;50.468;8.480;2022-08-26T16:07:22;8.25;;;7.50;;
12980;SDS011;6555;50.468;8.480;2022-08-26T16:12:38;8.48;;;7.78;;
12980;SDS011;6555;50.468;8.480;2022-08-26T16:18:08;8.05;;;7.45;;
12980;SDS011;6555;50.468;8.480;2022-08-26T16:23:31;7.50;;;6.78;;
12980;SDS011;6555;50.468;8.480;2022-08-26T16:29:03;7.47;;;6.88;;
12980;SDS011;6555;50.468;8.480;2022-08-26T16:34:20;7.07;;;6.47;;
12980;SDS011;6555;50.468;8.480;2022-08-26T16:39:52;7.30;;;6.60;;
12980;SDS011;6555;50.468;8.480;2022-08-26T16:45:08;7.70;;;7.10;;
12980;SDS011;6555;50.468;8.480;2022-08-26T16:50:39;8.77;;;8.07;;
12980;SDS011;6555;50.468;8.480;2022-08-26T16:55:57;21.13;;;19.35;;
12980;SDS011;6555;50.468;8.480;2022-08-26T17:01:27;11.98;;;10.88;;
12980;SDS011;6555;50.468;8.480;2022-08-26T17:06:43;8.38;;;7.53;;
12980;SDS011;6555;50.468;8.480;2022-08-26T17:12:15;8.57;;;7.88;;
12980;SDS011;6555;50.468;8.480;2022-08-26T17:17:32;6.50;;;6.00;;
12980;SDS011;6555;50.468;8.480;2022-08-26T17:23:02;24.67;;;21.38;;
12980;SDS011;6555;50.468;8.480;2022-08-26T17:28:20;11.40;;;10.35;;
12980;SDS011;6555;50.468;8.480;2022-08-26T17:33:51;7.47;;;6.88;;
12980;SDS011;6555;50.468;8.480;2022-08-26T17:39:08;6.45;;;5.95;;
12980;SDS011;6555;50.468;8.480;2022-08-26T17:44:40;5.43;;;5.00;;
12980;SDS011;6555;50.468;8.480;2022-08-26T17:49:56;4.95;;;4.55;;
12980;SDS011;6555;50.468;8.480;2022-08-26T17:55:26;4.57;;;4.20;;
12980;SDS011;6555;50.468;8.480;2022-08-26T18:00:44;4.55;;;4.15;;
12980;SDS011;6555;50.468;8.480;2022-08-26T18:06:17;4.07;;;3.78;;
12980;SDS011;6555;50.468;8.480;2022-08-26T18:11:34;4.03;;;3.65;;
12980;SDS011;6555;50.468;8.480;2022-08-26T18:17:06;4.10;;;3.70;;
12980;SDS011;6555;50.468;8.480;2022-08-26T18:22:25;4.55;;;4.18;;
12980;SDS011;6555;50.468;8.480;2022-08-26T18:27:55;5.57;;;4.85;;
12980;SDS011;6555;50.468;8.480;2022-08-26T18:33:13;5.00;;;4.60;;
12980;SDS011;6555;50.468;8.480;2022-08-26T18:38:44;6.03;;;4.20;;
12980;SDS011;6555;50.468;8.480;2022-08-26T18:44:01;3.55;;;3.25;;
12980;SDS011;6555;50.468;8.480;2022-08-26T18:49:33;3.88;;;3.53;;
12980;SDS011;6555;50.468;8.480;2022-08-26T18:54:50;4.22;;;3.83;;
12980;SDS011;6555;50.468;8.480;2022-08-26T19:00:19;3.83;;;3.53;;
12980;SDS011;6555;50.468;8.480;2022-08-26T19:05:37;4.40;;;4.00;;
12980;SDS011;6555;50.468;8.480;2022-08-26T19:11:07;4.47;;;3.28;;
12980;SDS011;6555;50.468;8.480;2022-08-26T19:16:39;4.20;;;3.80;;
12980;SDS011;6555;50.468;8.480;2022-08-26T19:22:12;3.75;;;3.45;;
12980;SDS011;6555;50.468;8.480;2022-08-26T19:27:28;3.70;;;3.40;;
12980;SDS011;6555;50.468;8.480;2022-08-26T19:32:59;3.42;;;3.22;;
12980;SDS011;6555;50.468;8.480;2022-08-26T19:38:20;3.65;;;3.35;;
12980;SDS011;6555;50.468;8.480;2022-08-26T19:43:51;5.45;;;3.63;;
12980;SDS011;6555;50.468;8.480;2022-08-26T19:49:07;3.63;;;3.30;;
12980;SDS011;6555;50.468;8.480;2022-08-26T19:54:39;3.05;;;2.75;;
12980;SDS011;6555;50.468;8.480;2022-08-26T19:59:56;2.90;;;2.60;;
12980;SDS011;6555;50.468;8.480;2022-08-26T20:05:25;3.40;;;2.83;;
12980;SDS011;6555;50.468;8.480;2022-08-26T20:10:43;5.15;;;2.83;;
12980;SDS011;6555;50.468;8.480;2022-08-26T20:16:14;3.33;;;2.50;;
12980;SDS011;6555;50.468;8.480;2022-08-26T20:21:31;3.88;;;2.90;;
12980;SDS011;6555;50.468;8.480;2022-08-26T20:27:05;3.40;;;2.88;;
12980;SDS011;6555;50.468;8.480;2022-08-26T20:32:22;2.70;;;2.50;;
12980;SDS011;6555;50.468;8.480;2022-08-26T20:37:52;4.85;;;2.63;;
12980;SDS011;6555;50.468;8.480;2022-08-26T20:43:24;3.13;;;2.78;;
12980;SDS011;6555;50.468;8.480;2022-08-26T20:48:41;3.63;;;3.00;;
12980;SDS011;6555;50.468;8.480;2022-08-26T20:54:11;3.08;;;2.42;;
12980;SDS011;6555;50.468;8.480;2022-08-26T20:59:36;3.15;;;2.85;;
12980;SDS011;6555;50.468;8.480;2022-08-26T21:05:07;5.00;;;2.58;;
12980;SDS011;6555;50.468;8.480;2022-08-26T21:10:24;2.60;;;2.40;;
12980;SDS011;6555;50.468;8.480;2022-08-26T21:15:55;3.58;;;2.75;;
12980;SDS011;6555;50.468;8.480;2022-08-26T21:21:12;2.80;;;2.47;;
12980;SDS011;6555;50.468;8.480;2022-08-26T21:26:42;3.00;;;2.40;;
12980;SDS011;6555;50.468;8.480;2022-08-26T21:32:01;2.95;;;2.28;;
12980;SDS011;6555;50.468;8.480;2022-08-26T21:37:32;2.45;;;2.25;;
12980;SDS011;6555;50.468;8.480;2022-08-26T21:42:48;2.83;;;2.47;;
12980;SDS011;6555;50.468;8.480;2022-08-26T21:48:19;3.28;;;2.40;;
12980;SDS011;6555;50.468;8.480;2022-08-26T21:53:41;2.30;;;2.10;;
12980;SDS011;6555;50.468;8.480;2022-08-26T21:59:13;3.22;;;2.28;;
12980;SDS011;6555;50.468;8.480;2022-08-26T22:04:32;4.15;;;2.67;;
12980;SDS011;6555;50.468;8.480;2022-08-26T22:10:04;3.42;;;2.50;;
12980;SDS011;6555;50.468;8.480;2022-08-26T22:15:21;3.17;;;2.08;;
12980;SDS011;6555;50.468;8.480;2022-08-26T22:20:55;3.72;;;2.33;;
12980;SDS011;6555;50.468;8.480;2022-08-26T22:26:15;2.90;;;2.38;;
12980;SDS011;6555;50.468;8.480;2022-08-26T22:31:46;3.90;;;2.53;;
12980;SDS011;6555;50.468;8.480;2022-08-26T22:37:03;3.33;;;2.50;;
12980;SDS011;6555;50.468;8.480;2022-08-26T22:42:34;3.55;;;2.40;;
12980;SDS011;6555;50.468;8.480;2022-08-26T22:48:02;2.55;;;2.30;;
12980;SDS011;6555;50.468;8.480;2022-08-26T22:53:34;3.55;;;2.00;;
12980;SDS011;6555;50.468;8.480;2022-08-26T22:58:51;3.17;;;2.40;;
12980;SDS011;6555;50.468;8.480;2022-08-26T23:04:21;3.05;;;2.10;;
12980;SDS011;6555;50.468;8.480;2022-08-26T23:09:38;3.00;;;2.10;;
12980;SDS011;6555;50.468;8.480;2022-08-26T23:15:09;2.33;;;2.13;;
12980;SDS011;6555;50.468;8.480;2022-08-26T23:20:27;3.95;;;2.40;;
12980;SDS011;6555;50.468;8.480;2022-08-26T23:25:59;3.50;;;2.20;;
12980;SDS011;6555;50.468;8.480;2022-08-26T23:31:16;2.35;;;1.80;;
12980;SDS011;6555;50.468;8.480;2022-08-26T23:36:46;2.03;;;1.83;;
12980;SDS011;6555;50.468;8.480;2022-08-26T23:42:03;3.40;;;2.35;;
12980;SDS011;6555;50.468;8.480;2022-08-26T23:47:34;2.67;;;2.20;;
12980;SDS011;6555;50.468;8.480;2022-08-26T23:52:51;2.25;;;2.05;;
12980;SDS011;6555;50.468;8.480;2022-08-26T23:58:32;2.92;;;2.13;;
